createdAt,value
2019-02-16T00:00:23.165Z,55.7
2019-02-16T00:05:19.749Z,55.6
2019-02-16T00:10:16.243Z,55.2
2019-02-16T00:15:12.592Z,55.4
2019-02-16T00:20:09.324Z,55.6
2019-02-16T00:25:05.715Z,55.8
2019-02-16T00:30:02.337Z,55.6
2019-02-16T00:34:58.987Z,56
2019-02-16T00:39:55.407Z,56.2
2019-02-16T00:44:51.995Z,55.9
2019-02-16T00:49:48.587Z,56.2
2019-02-16T00:54:44.958Z,56.1
2019-02-16T00:59:41.478Z,56.5
2019-02-16T01:04:39.161Z,56.4
2019-02-16T01:09:34.515Z,56
2019-02-16T01:14:29.883Z,56.3
2019-02-16T01:19:26.415Z,56.4
2019-02-16T01:24:22.565Z,55.5
2019-02-16T01:29:19.178Z,55.5
2019-02-16T01:34:15.929Z,56
2019-02-16T01:39:12.222Z,55.7
2019-02-16T01:44:09.101Z,55.7
2019-02-16T01:49:05.516Z,55.8
2019-02-16T01:54:01.828Z,55.8
2019-02-16T01:58:58.475Z,55.9
2019-02-16T02:03:54.629Z,56.2
2019-02-16T02:08:51.286Z,56.4
2019-02-16T02:13:47.575Z,56.6
2019-02-16T02:18:44.281Z,56.3
2019-02-16T02:23:40.612Z,55.7
2019-02-16T02:28:37.175Z,55.8
2019-02-16T02:33:33.394Z,55.7
2019-02-16T02:38:29.793Z,55.6
2019-02-16T02:43:26.237Z,56.3
2019-02-16T02:48:22.739Z,56
2019-02-16T02:53:19.445Z,55.6
2019-02-16T02:58:15.711Z,56.1
2019-02-16T03:03:11.895Z,55.6
2019-02-16T03:08:08.532Z,55.5
2019-02-16T03:13:04.927Z,55.6
2019-02-16T03:18:01.428Z,55.8
2019-02-16T03:22:57.313Z,55.8
2019-02-16T03:27:53.850Z,55.8
2019-02-16T03:32:50.747Z,55.6
2019-02-16T03:37:47.196Z,55.8
2019-02-16T03:42:43.838Z,56.8
2019-02-16T03:47:40.533Z,56
2019-02-16T03:52:37.234Z,56.2
2019-02-16T03:57:34.000Z,56.5
2019-02-16T04:02:30.676Z,56.6
2019-02-16T04:07:27.073Z,55.9
2019-02-16T04:12:23.327Z,55.7
2019-02-16T04:17:19.951Z,57.2
2019-02-16T04:22:24.115Z,56.7
2019-02-16T04:27:12.983Z,56.4
2019-02-16T04:32:08.929Z,55.3
2019-02-16T04:37:05.343Z,55.7
2019-02-16T04:42:01.857Z,55.8
2019-02-16T04:46:58.375Z,56.1
2019-02-16T04:51:54.875Z,56.6
2019-02-16T04:56:51.186Z,56.9
2019-02-16T05:01:47.633Z,56.8
2019-02-16T05:06:44.275Z,57.5
2019-02-16T05:11:40.635Z,57.5
2019-02-16T05:16:37.149Z,57
2019-02-16T05:21:33.700Z,56.7
2019-02-16T05:26:30.104Z,56.4
2019-02-16T05:31:26.623Z,56.8
2019-02-16T05:36:23.144Z,56.5
2019-02-16T05:41:19.825Z,56.4
2019-02-16T05:46:16.315Z,56.3
2019-02-16T05:51:12.616Z,56.2
2019-02-16T05:56:09.314Z,56.1
2019-02-16T06:01:05.364Z,56.2
2019-02-16T06:06:02.012Z,56.6
2019-02-16T06:10:58.049Z,56.5
2019-02-16T06:15:54.667Z,56.6
2019-02-16T06:20:51.192Z,56.3
2019-02-16T06:25:47.750Z,57
2019-02-16T06:30:44.302Z,57.5
2019-02-16T06:35:40.871Z,56.5
2019-02-16T06:40:37.463Z,56.1
2019-02-16T06:45:33.916Z,56
2019-02-16T06:50:36.677Z,56.5
2019-02-16T06:55:26.360Z,56.1
2019-02-16T07:00:22.980Z,55.5
2019-02-16T07:05:19.506Z,56
2019-02-16T07:10:16.038Z,56.2
2019-02-16T07:15:12.550Z,56.4
2019-02-16T07:20:09.054Z,56.1
2019-02-16T07:25:05.609Z,55.6
2019-02-16T07:30:02.116Z,55.6
2019-02-16T07:34:58.724Z,55.7
2019-02-16T07:39:55.295Z,55.7
2019-02-16T07:44:52.057Z,55.7
2019-02-16T07:49:48.734Z,55.1
2019-02-16T07:54:45.465Z,55.1
2019-02-16T07:59:42.180Z,54.8
2019-02-16T08:04:38.647Z,54.8
2019-02-16T08:09:34.922Z,54.2
2019-02-16T08:14:31.509Z,53.4
2019-02-16T08:19:27.724Z,52.6
2019-02-16T08:24:24.335Z,52.4
2019-02-16T08:29:20.346Z,51.5
2019-02-16T08:34:17.001Z,50.7
2019-02-16T08:39:13.700Z,49
2019-02-16T08:44:10.301Z,49.1
2019-02-16T08:49:06.295Z,49.2
2019-02-16T08:54:02.964Z,48.7
2019-02-16T08:58:59.757Z,48.2
2019-02-16T09:03:56.347Z,47.5
2019-02-16T09:08:52.587Z,46.8
2019-02-16T09:13:49.182Z,46.5
2019-02-16T09:18:45.359Z,45.8
2019-02-16T09:23:42.055Z,45.5
2019-02-16T09:28:38.673Z,46.1
2019-02-16T09:33:35.443Z,46.9
2019-02-16T09:38:31.903Z,46.5
2019-02-16T09:43:28.510Z,46.3
2019-02-16T09:48:25.111Z,45.7
2019-02-16T09:53:21.614Z,45.7
2019-02-16T09:58:17.408Z,45.7
2019-02-16T10:03:14.110Z,45.8
2019-02-16T10:08:10.825Z,45.2
2019-02-16T10:13:07.456Z,45
2019-02-16T10:18:04.221Z,43.5
2019-02-16T10:23:01.193Z,43
2019-02-16T10:27:57.910Z,43.1
2019-02-16T10:32:54.623Z,42.7
2019-02-16T10:37:51.309Z,42.1
2019-02-16T10:42:48.419Z,41.3
2019-02-16T10:47:45.216Z,40.2
2019-02-16T10:52:42.041Z,41.1
2019-02-16T10:57:38.702Z,40.9
2019-02-16T11:02:35.503Z,40.1
2019-02-16T11:07:32.243Z,39.5
2019-02-16T11:12:28.839Z,40.1
2019-02-16T11:17:25.414Z,40.2
2019-02-16T11:22:22.137Z,40.5
2019-02-16T11:27:18.760Z,40
2019-02-16T11:32:15.297Z,40.3
2019-02-16T11:37:11.752Z,39.6
2019-02-16T11:42:08.465Z,39.6
2019-02-16T11:47:05.115Z,38.7
2019-02-16T11:52:02.011Z,39
2019-02-16T11:56:58.299Z,38.3
2019-02-16T12:01:55.248Z,37.2
2019-02-16T12:06:52.122Z,37.6
2019-02-16T12:11:49.102Z,37.4
2019-02-16T12:16:45.466Z,36.6
2019-02-16T12:21:42.812Z,36.1
2019-02-16T12:26:38.988Z,36.3
2019-02-16T12:31:36.056Z,35.9
2019-02-16T12:36:32.790Z,35.8
2019-02-16T12:41:29.550Z,35.2
2019-02-16T12:46:26.395Z,35.6
2019-02-16T12:51:23.080Z,35.4
2019-02-16T12:56:19.633Z,35.4
2019-02-16T13:01:16.516Z,35.5
2019-02-16T13:06:13.509Z,35.7
2019-02-16T13:11:10.452Z,34.6
2019-02-16T13:16:06.755Z,34.6
2019-02-16T13:21:03.499Z,35.5
2019-02-16T13:26:00.116Z,34.8
2019-02-16T13:30:56.818Z,35.3
2019-02-16T13:35:53.588Z,35
2019-02-16T13:40:49.788Z,35.1
2019-02-16T13:45:46.636Z,35.1
2019-02-16T13:50:43.390Z,35.5
2019-02-16T13:55:40.111Z,35.2
2019-02-16T14:00:36.796Z,35.5
2019-02-16T14:05:33.354Z,36
2019-02-16T14:10:29.921Z,35.9
2019-02-16T14:15:26.615Z,36.2
2019-02-16T14:20:23.153Z,36.5
2019-02-16T14:25:19.528Z,36.5
2019-02-16T14:30:16.430Z,37.3
2019-02-16T14:35:12.914Z,37
2019-02-16T14:40:09.656Z,37
2019-02-16T14:45:06.280Z,37.5
2019-02-16T14:50:02.885Z,37.7
2019-02-16T14:54:58.865Z,37.8
2019-02-16T14:59:56.614Z,37.7
2019-02-16T15:04:52.982Z,37.5
2019-02-16T15:09:49.891Z,35
2019-02-16T15:14:46.102Z,33.7
2019-02-16T15:19:42.830Z,33.6
2019-02-16T15:24:39.297Z,34.2
2019-02-16T15:29:36.042Z,35.2
2019-02-16T15:34:32.470Z,36.3
2019-02-16T15:39:29.347Z,38.9
2019-02-16T15:44:25.993Z,39.7
2019-02-16T15:49:22.667Z,41.1
2019-02-16T15:54:19.254Z,41.5
2019-02-16T15:59:15.896Z,41.7
2019-02-16T16:04:12.457Z,42.1
2019-02-16T16:09:09.174Z,42.2
2019-02-16T16:14:06.559Z,42.4
2019-02-16T16:19:02.132Z,42.5
2019-02-16T16:23:58.723Z,42.5
2019-02-16T16:29:00.503Z,42.8
2019-02-16T16:33:52.160Z,42.7
2019-02-16T16:38:48.935Z,42.7
2019-02-16T16:43:45.428Z,42.9
2019-02-16T16:48:42.056Z,43
2019-02-16T16:53:38.811Z,42.9
2019-02-16T16:58:35.316Z,43.1
2019-02-16T17:03:31.635Z,43.9
2019-02-16T17:08:28.197Z,44
2019-02-16T17:13:24.811Z,44.2
2019-02-16T17:18:21.213Z,44.8
2019-02-16T17:23:17.656Z,45
2019-02-16T17:28:14.200Z,45.2
2019-02-16T17:33:10.742Z,45.4
2019-02-16T17:38:07.229Z,45.4
2019-02-16T17:43:03.406Z,45.6
2019-02-16T17:48:00.055Z,46
2019-02-16T17:52:56.483Z,46
2019-02-16T17:57:53.356Z,46.1
2019-02-16T18:02:49.862Z,46.4
2019-02-16T18:07:46.409Z,46.6
2019-02-16T18:12:42.912Z,46.9
2019-02-16T18:17:39.779Z,46.8
2019-02-16T18:22:36.327Z,46.8
2019-02-16T18:27:33.097Z,46.9
2019-02-16T18:32:31.461Z,47.1
2019-02-16T18:37:26.285Z,46.9
2019-02-16T18:42:22.840Z,47
2019-02-16T18:47:19.453Z,47.3
2019-02-16T18:52:16.072Z,47.5
2019-02-16T18:57:12.295Z,47.7
2019-02-16T19:02:08.766Z,47.5
2019-02-16T19:07:05.444Z,47.5
2019-02-16T19:12:02.013Z,47.7
2019-02-16T19:16:58.468Z,47.9
2019-02-16T19:21:54.834Z,48.1
2019-02-16T19:26:51.489Z,48.1
2019-02-16T19:31:48.143Z,48.2
2019-02-16T19:36:44.935Z,48.6
2019-02-16T19:41:41.505Z,48.4
2019-02-16T19:46:38.184Z,48.5
2019-02-16T19:51:34.754Z,48.6
2019-02-16T19:56:31.535Z,48.7
2019-02-16T20:01:28.207Z,48.8
2019-02-16T20:06:24.869Z,48.6
2019-02-16T20:11:21.561Z,48.8
2019-02-16T20:16:18.084Z,49.1
2019-02-16T20:21:14.672Z,49.2
2019-02-16T20:26:11.220Z,49.1
2019-02-16T20:31:07.935Z,49.1
2019-02-16T20:36:04.086Z,49.1
2019-02-16T20:41:00.671Z,49.3
2019-02-16T20:45:57.257Z,49.7
2019-02-16T20:50:53.742Z,49.5
2019-02-16T20:55:50.476Z,49.5
2019-02-16T21:00:47.196Z,49.6
2019-02-16T21:05:43.765Z,49.4
2019-02-16T21:10:40.187Z,49.6
2019-02-16T21:15:36.558Z,49.7
2019-02-16T21:20:32.835Z,50.3
2019-02-16T21:25:29.708Z,49.9
2019-02-16T21:30:26.328Z,49.8
2019-02-16T21:35:23.105Z,50.1
2019-02-16T21:40:19.570Z,50.3
2019-02-16T21:45:16.183Z,50.5
2019-02-16T21:50:12.769Z,50.4
2019-02-16T21:55:09.490Z,51
2019-02-16T22:00:06.194Z,50.6
2019-02-16T22:05:02.985Z,50.6
2019-02-16T22:09:59.586Z,50.5
2019-02-16T22:14:56.264Z,50.5
2019-02-16T22:19:52.890Z,50.6
2019-02-16T22:24:49.623Z,50.6
2019-02-16T22:29:46.316Z,50.7
2019-02-16T22:34:42.878Z,50.7
2019-02-16T22:39:39.393Z,50.7
2019-02-16T22:44:35.855Z,50.7
2019-02-16T22:49:32.881Z,50.6
2019-02-16T22:54:29.605Z,50.7
2019-02-16T22:59:26.402Z,50.9
2019-02-16T23:04:22.885Z,50.9
2019-02-16T23:09:19.680Z,51
2019-02-16T23:14:16.384Z,50.9
2019-02-16T23:19:12.616Z,51
2019-02-16T23:24:09.473Z,51.4
2019-02-16T23:29:06.114Z,51.4
2019-02-16T23:34:02.674Z,51.4
2019-02-16T23:38:59.052Z,51.5
2019-02-16T23:43:55.628Z,51.7
2019-02-16T23:48:52.326Z,52
2019-02-16T23:53:49.166Z,52.1
2019-02-16T23:58:49.138Z,52.3
